createdAt,value
2018-05-26T00:01:39.449Z,7.80
2018-05-26T00:04:07.017Z,7.50
2018-05-26T00:06:34.512Z,6.90
2018-05-26T00:09:02.036Z,7.23
2018-05-26T00:11:29.536Z,7.13
2018-05-26T00:13:57.054Z,7.20
2018-05-26T00:16:24.558Z,7.57
2018-05-26T00:18:53.581Z,7.17
2018-05-26T00:21:21.873Z,7.77
2018-05-26T00:23:49.388Z,7.07
2018-05-26T00:26:16.905Z,5.93
2018-05-26T00:28:44.429Z,6.97
2018-05-26T00:31:12.705Z,7.40
2018-05-26T00:33:40.996Z,6.43
2018-05-26T00:36:08.494Z,5.53
2018-05-26T00:38:36.010Z,6.50
2018-05-26T00:41:03.513Z,7.03
2018-05-26T00:43:31.028Z,7.20
2018-05-26T00:45:58.542Z,7.70
2018-05-26T00:48:26.045Z,7.47
2018-05-26T00:50:53.560Z,6.80
2018-05-26T00:53:21.828Z,6.07
2018-05-26T00:55:49.350Z,7.20
2018-05-26T00:58:16.896Z,8.50
2018-05-26T01:00:44.412Z,8.03
2018-05-26T01:03:11.912Z,6.80
2018-05-26T01:05:39.432Z,7.60
2018-05-26T01:08:07.032Z,8.43
2018-05-26T01:10:34.544Z,7.67
2018-05-26T01:13:03.554Z,9.03
2018-05-26T01:15:31.840Z,8.40
2018-05-26T01:18:00.142Z,8.10
2018-05-26T01:20:27.684Z,7.77
2018-05-26T01:22:55.950Z,7.40
2018-05-26T01:25:24.251Z,8.47
2018-05-26T01:27:51.752Z,6.80
2018-05-26T01:30:19.268Z,8.17
2018-05-26T01:32:46.920Z,7.37
2018-05-26T01:35:14.486Z,7.57
2018-05-26T01:37:42.004Z,6.53
2018-05-26T01:40:09.596Z,7.80
2018-05-26T01:42:37.857Z,8.00
2018-05-26T01:45:06.129Z,7.87
2018-05-26T01:47:34.428Z,8.47
2018-05-26T01:50:01.929Z,8.37
2018-05-26T01:52:29.453Z,6.70
2018-05-26T01:54:56.953Z,6.00
2018-05-26T01:57:24.472Z,6.30
2018-05-26T01:59:51.977Z,7.43
2018-05-26T02:02:20.297Z,7.27
2018-05-26T02:04:47.796Z,6.77
2018-05-26T02:07:15.312Z,6.93
2018-05-26T02:09:42.811Z,7.37
2018-05-26T02:12:10.340Z,8.30
2018-05-26T02:14:37.894Z,7.17
2018-05-26T02:17:05.553Z,8.60
2018-05-26T02:19:33.052Z,7.17
2018-05-26T02:22:00.569Z,6.73
2018-05-26T02:24:28.074Z,7.50
2018-05-26T02:26:55.596Z,7.00
2018-05-26T02:29:23.136Z,6.57
2018-05-26T02:31:50.652Z,6.80
2018-05-26T02:34:18.264Z,6.57
2018-05-26T02:36:45.781Z,6.93
2018-05-26T02:39:13.281Z,6.97
2018-05-26T02:41:40.838Z,7.97
2018-05-26T02:44:08.356Z,7.20
2018-05-26T02:46:35.887Z,7.83
2018-05-26T02:49:03.399Z,7.37
2018-05-26T02:51:30.911Z,9.50
2018-05-26T02:53:58.428Z,8.40
2018-05-26T02:56:25.930Z,8.57
2018-05-26T02:58:53.449Z,8.60
2018-05-26T03:01:20.997Z,8.97
2018-05-26T03:03:48.032Z,9.53
2018-05-26T03:06:21.319Z,9.90
2018-05-26T03:08:55.374Z,10.43
2018-05-26T03:11:28.619Z,13.20
2018-05-26T03:14:01.904Z,15.30
2018-05-26T03:16:35.204Z,19.20
2018-05-26T03:19:02.724Z,21.73
2018-05-26T03:21:30.232Z,19.70
2018-05-26T03:23:58.525Z,22.40
2018-05-26T03:26:26.080Z,21.60
2018-05-26T03:28:53.602Z,24.47
2018-05-26T03:31:21.104Z,25.37
2018-05-26T03:33:48.659Z,25.10
2018-05-26T03:36:16.224Z,26.80
2018-05-26T03:38:44.481Z,26.00
2018-05-26T03:41:12.748Z,26.67
2018-05-26T03:43:41.141Z,26.83
2018-05-26T03:46:09.404Z,26.23
2018-05-26T03:48:37.694Z,24.73
2018-05-26T03:51:05.969Z,26.63
2018-05-26T03:53:33.497Z,27.10
2018-05-26T03:56:12.815Z,27.83
2018-05-26T03:58:52.362Z,26.37
2018-05-26T04:01:19.860Z,26.87
2018-05-26T04:03:48.254Z,25.37
2018-05-26T04:06:15.761Z,25.00
2018-05-26T04:08:43.505Z,24.77
2018-05-26T04:11:11.024Z,26.73
2018-05-26T04:13:38.524Z,23.80
2018-05-26T04:16:06.044Z,23.00
2018-05-26T04:18:33.553Z,22.13
2018-05-26T04:21:01.069Z,23.00
2018-05-26T04:23:28.580Z,20.07
2018-05-26T04:25:56.097Z,20.33
2018-05-26T04:28:23.596Z,18.83
2018-05-26T04:30:51.108Z,18.80
2018-05-26T04:33:18.603Z,17.10
2018-05-26T04:35:46.125Z,16.70
2018-05-26T04:38:13.620Z,15.10
2018-05-26T04:40:41.140Z,14.60
2018-05-26T04:43:08.644Z,13.77
2018-05-26T04:45:36.162Z,13.27
2018-05-26T04:48:03.668Z,11.77
2018-05-26T04:50:31.532Z,11.43
2018-05-26T04:52:59.032Z,10.87
2018-05-26T04:55:26.900Z,9.20
2018-05-26T04:57:54.396Z,10.50
2018-05-26T05:00:21.896Z,9.20
2018-05-26T05:02:49.440Z,9.03
2018-05-26T05:05:17.705Z,8.60
2018-05-26T05:07:45.220Z,8.97
2018-05-26T05:10:12.720Z,8.43
2018-05-26T05:12:40.232Z,9.17
2018-05-26T05:15:07.733Z,7.50
2018-05-26T05:17:35.325Z,8.93
2018-05-26T05:20:02.888Z,8.00
2018-05-26T05:22:30.408Z,7.17
2018-05-26T05:24:57.908Z,7.30
2018-05-26T05:27:25.425Z,7.33
2018-05-26T05:29:52.922Z,7.57
2018-05-26T05:32:20.441Z,5.90
2018-05-26T05:34:47.936Z,7.10
2018-05-26T05:37:15.446Z,5.77
2018-05-26T05:39:42.944Z,5.70
2018-05-26T05:42:11.225Z,6.17
2018-05-26T05:44:38.717Z,6.47
2018-05-26T05:47:06.247Z,6.20
2018-05-26T05:49:33.740Z,6.00
2018-05-26T05:52:01.257Z,6.00
2018-05-26T05:54:28.754Z,6.10
2018-05-26T05:56:56.273Z,5.63
2018-05-26T05:59:23.841Z,6.07
2018-05-26T06:01:51.397Z,6.37
2018-05-26T06:04:18.948Z,6.30
2018-05-26T06:06:46.513Z,5.43
2018-05-26T06:09:14.028Z,5.63
2018-05-26T06:11:41.529Z,5.37
2018-05-26T06:14:09.084Z,5.77
2018-05-26T06:16:36.580Z,5.13
2018-05-26T06:19:04.096Z,5.10
2018-05-26T06:21:32.356Z,4.70
2018-05-26T06:24:00.637Z,4.67
2018-05-26T06:26:28.918Z,5.40
2018-05-26T06:28:57.193Z,3.90
2018-05-26T06:31:25.459Z,4.23
2018-05-26T06:33:53.741Z,4.30
2018-05-26T06:36:22.001Z,4.03
2018-05-26T06:38:49.522Z,4.33
2018-05-26T06:41:17.049Z,4.20
2018-05-26T06:43:44.611Z,3.90
2018-05-26T06:46:12.117Z,4.57
2018-05-26T06:48:39.725Z,4.20
2018-05-26T06:51:07.288Z,3.90
2018-05-26T06:53:34.844Z,4.27
2018-05-26T06:56:02.404Z,4.30
2018-05-26T06:58:29.959Z,3.87
2018-05-26T07:00:58.340Z,4.00
2018-05-26T07:03:25.900Z,3.67
2018-05-26T07:05:53.463Z,4.00
2018-05-26T07:08:20.959Z,3.73
2018-05-26T07:10:48.482Z,3.67
2018-05-26T07:13:16.032Z,3.50
2018-05-26T07:15:43.593Z,3.43
2018-05-26T07:18:11.152Z,3.60
2018-05-26T07:20:38.664Z,3.27
2018-05-26T07:23:06.165Z,3.60
2018-05-26T07:25:33.684Z,3.60
2018-05-26T07:28:02.688Z,3.53
2018-05-26T07:30:30.209Z,3.43
2018-05-26T07:32:57.741Z,4.03
2018-05-26T07:35:25.296Z,3.77
2018-05-26T07:37:52.793Z,3.80
2018-05-26T07:40:20.304Z,4.30
2018-05-26T07:42:48.556Z,4.30
2018-05-26T07:45:16.148Z,4.30
2018-05-26T07:47:43.640Z,3.60
2018-05-26T07:50:11.156Z,3.73
2018-05-26T07:52:39.455Z,3.40
2018-05-26T07:55:06.977Z,4.40
2018-05-26T07:57:35.249Z,4.40
2018-05-26T08:00:03.594Z,3.80
2018-05-26T08:02:31.072Z,4.23
2018-05-26T08:04:58.568Z,4.03
2018-05-26T08:07:26.081Z,3.70
2018-05-26T08:09:53.577Z,3.40
2018-05-26T08:12:21.856Z,3.70
2018-05-26T08:14:49.416Z,4.00
2018-05-26T08:17:16.994Z,3.50
2018-05-26T08:19:44.489Z,3.90
2018-05-26T08:22:12.005Z,4.30
2018-05-26T08:24:39.506Z,3.97
2018-05-26T08:27:07.022Z,4.20
2018-05-26T08:29:34.524Z,4.10
2018-05-26T08:32:02.038Z,4.27
2018-05-26T08:34:29.534Z,4.13
2018-05-26T08:36:57.049Z,4.17
2018-05-26T08:39:24.550Z,3.97
2018-05-26T08:41:52.157Z,4.40
2018-05-26T08:44:19.652Z,4.33
2018-05-26T08:46:47.169Z,4.30
2018-05-26T08:49:14.661Z,4.57
2018-05-26T08:51:42.188Z,4.60
2018-05-26T08:54:09.691Z,4.57
2018-05-26T08:56:37.221Z,4.60
2018-05-26T08:59:04.772Z,5.23
2018-05-26T09:01:32.336Z,6.00
2018-05-26T09:03:59.848Z,4.77
2018-05-26T09:06:27.390Z,4.80
2018-05-26T09:08:54.881Z,5.30
2018-05-26T09:11:23.145Z,5.53
2018-05-26T09:13:50.736Z,5.57
2018-05-26T09:16:18.296Z,5.10
2018-05-26T09:18:45.818Z,4.43
2018-05-26T09:21:14.094Z,4.90
2018-05-26T09:23:41.696Z,4.60
2018-05-26T09:26:09.245Z,4.83
2018-05-26T09:28:37.528Z,4.50
2018-05-26T09:31:05.086Z,4.90
2018-05-26T09:33:32.603Z,4.90
2018-05-26T09:36:00.103Z,5.03
2018-05-26T09:38:27.622Z,4.70
2018-05-26T09:40:55.121Z,4.63
2018-05-26T09:43:22.680Z,4.73
2018-05-26T09:45:50.249Z,4.87
2018-05-26T09:48:17.801Z,5.13
2018-05-26T09:50:45.300Z,4.83
2018-05-26T09:53:12.820Z,4.80
2018-05-26T09:55:40.317Z,5.30
2018-05-26T09:58:07.849Z,4.80
2018-05-26T10:00:35.352Z,4.83
2018-05-26T10:03:02.854Z,4.13
2018-05-26T10:05:30.372Z,4.30
2018-05-26T10:07:57.876Z,5.30
2018-05-26T10:10:25.392Z,4.77
2018-05-26T10:12:53.710Z,5.03
2018-05-26T10:15:21.960Z,5.67
2018-05-26T10:17:50.225Z,5.30
2018-05-26T10:20:18.512Z,5.40
2018-05-26T10:22:46.776Z,4.40
2018-05-26T10:25:15.056Z,5.73
2018-05-26T10:27:43.329Z,4.70
2018-05-26T10:30:11.611Z,4.90
2018-05-26T10:32:39.872Z,3.73
2018-05-26T10:35:07.385Z,4.33
2018-05-26T10:37:34.885Z,5.23
2018-05-26T10:40:02.404Z,5.03
2018-05-26T10:42:29.908Z,5.27
2018-05-26T10:44:57.420Z,4.60
2018-05-26T10:47:24.912Z,4.30
2018-05-26T10:49:52.425Z,3.40
2018-05-26T10:52:19.921Z,3.70
2018-05-26T10:54:47.449Z,4.03
2018-05-26T10:57:14.948Z,3.90
2018-05-26T10:59:42.449Z,3.70
2018-05-26T11:02:09.986Z,3.83
2018-05-26T11:04:38.252Z,3.47
2018-05-26T11:07:06.532Z,4.63
2018-05-26T11:09:34.797Z,3.90
2018-05-26T11:12:03.084Z,4.77
2018-05-26T11:14:31.352Z,4.60
2018-05-26T11:16:59.658Z,4.53
2018-05-26T11:19:27.161Z,4.20
2018-05-26T11:21:54.680Z,4.40
2018-05-26T11:24:22.199Z,4.20
2018-05-26T11:26:49.719Z,4.70
2018-05-26T11:29:17.216Z,5.07
2018-05-26T11:31:45.509Z,4.47
2018-05-26T11:34:13.773Z,4.00
2018-05-26T11:36:42.057Z,5.10
2018-05-26T11:39:10.565Z,4.40
2018-05-26T11:41:38.089Z,5.10
2018-05-26T11:44:06.370Z,4.57
2018-05-26T11:46:34.653Z,4.57
2018-05-26T11:49:02.917Z,4.47
2018-05-26T11:51:31.203Z,4.97
2018-05-26T11:53:59.464Z,5.30
2018-05-26T11:56:26.980Z,5.93
2018-05-26T11:58:54.523Z,5.50
2018-05-26T12:01:22.761Z,4.53
2018-05-26T12:03:51.044Z,6.20
2018-05-26T12:06:19.312Z,7.77
2018-05-26T12:08:47.605Z,8.07
2018-05-26T12:11:15.865Z,6.83
2018-05-26T12:13:44.148Z,6.90
2018-05-26T12:16:12.412Z,6.33
2018-05-26T12:18:39.932Z,7.73
2018-05-26T12:21:07.428Z,6.20
2018-05-26T12:23:34.946Z,7.97
2018-05-26T12:26:02.452Z,7.27
2018-05-26T12:28:30.741Z,6.10
2018-05-26T12:30:59.010Z,6.80
2018-05-26T12:33:27.288Z,6.57
2018-05-26T12:35:55.549Z,7.23
2018-05-26T12:38:23.069Z,6.43
2018-05-26T12:40:50.581Z,6.90
2018-05-26T12:43:18.872Z,8.17
2018-05-26T12:45:46.369Z,7.20
2018-05-26T12:48:13.902Z,7.10
2018-05-26T12:50:41.424Z,7.63
2018-05-26T12:53:09.691Z,7.70
2018-05-26T12:55:37.216Z,6.97
2018-05-26T12:58:04.708Z,6.50
2018-05-26T13:00:32.226Z,5.80
2018-05-26T13:02:59.721Z,6.43
2018-05-26T13:05:27.236Z,6.50
2018-05-26T13:07:54.736Z,6.63
2018-05-26T13:10:22.251Z,7.43
2018-05-26T13:12:49.744Z,6.43
2018-05-26T13:15:17.269Z,6.83
2018-05-26T13:17:44.768Z,6.73
2018-05-26T13:20:12.287Z,7.30
2018-05-26T13:22:39.785Z,6.63
2018-05-26T13:25:07.305Z,7.50
2018-05-26T13:27:34.800Z,6.77
2018-05-26T13:30:02.324Z,6.93
2018-05-26T13:32:29.824Z,7.80
2018-05-26T13:34:57.336Z,6.67
2018-05-26T13:37:24.837Z,6.47
2018-05-26T13:39:52.356Z,7.03
2018-05-26T13:42:19.853Z,6.13
2018-05-26T13:44:47.368Z,7.53
2018-05-26T13:47:14.865Z,6.37
2018-05-26T13:49:42.396Z,6.80
2018-05-26T13:52:09.996Z,5.73
2018-05-26T13:54:37.468Z,6.07
2018-05-26T13:57:04.964Z,5.97
2018-05-26T13:59:32.460Z,6.10
2018-05-26T14:01:59.977Z,5.87
2018-05-26T14:04:27.476Z,6.97
2018-05-26T14:06:55.768Z,5.77
2018-05-26T14:09:24.029Z,5.87
2018-05-26T14:11:51.550Z,6.00
2018-05-26T14:14:19.049Z,5.80
2018-05-26T14:16:47.333Z,5.80
2018-05-26T14:19:15.595Z,5.63
2018-05-26T14:21:43.108Z,5.73
2018-05-26T14:24:10.605Z,6.00
2018-05-26T14:26:38.116Z,5.40
2018-05-26T14:29:05.614Z,5.07
2018-05-26T14:31:33.132Z,6.33
2018-05-26T14:34:00.631Z,6.00
2018-05-26T14:36:28.146Z,5.70
2018-05-26T14:38:55.645Z,5.17
2018-05-26T14:41:23.160Z,4.87
2018-05-26T14:43:50.666Z,5.00
2018-05-26T14:46:18.189Z,5.40
2018-05-26T14:48:46.147Z,5.40
2018-05-26T14:51:13.662Z,4.93
2018-05-26T14:53:41.162Z,4.73
2018-05-26T14:56:08.696Z,4.60
2018-05-26T14:58:36.973Z,4.57
2018-05-26T15:01:05.237Z,4.00
2018-05-26T15:03:33.524Z,4.17
2018-05-26T15:06:01.785Z,4.10
2018-05-26T15:08:30.073Z,3.97
2018-05-26T15:10:58.336Z,4.47
2018-05-26T15:13:26.636Z,3.80
2018-05-26T15:15:54.148Z,4.20
2018-05-26T15:18:21.660Z,3.40
2018-05-26T15:20:49.165Z,3.53
2018-05-26T15:23:16.703Z,3.90
2018-05-26T15:25:44.201Z,3.90
2018-05-26T15:28:11.713Z,3.70
2018-05-26T15:30:39.212Z,3.40
2018-05-26T15:33:06.734Z,3.60
2018-05-26T15:35:34.241Z,3.40
2018-05-26T15:38:02.528Z,3.93
2018-05-26T15:40:30.794Z,3.47
2018-05-26T15:42:59.077Z,3.17
2018-05-26T15:45:27.337Z,3.60
2018-05-26T15:47:54.851Z,2.97
2018-05-26T15:50:22.353Z,3.30
2018-05-26T15:52:49.880Z,3.30
2018-05-26T15:55:17.380Z,3.53
2018-05-26T15:57:45.643Z,3.10
2018-05-26T16:00:13.161Z,3.10
2018-05-26T16:02:40.656Z,3.07
2018-05-26T16:05:08.180Z,3.10
2018-05-26T16:07:35.681Z,2.97
2018-05-26T16:10:03.968Z,3.13
2018-05-26T16:12:32.224Z,3.10
2018-05-26T16:14:59.745Z,2.90
2018-05-26T16:17:27.245Z,3.30
2018-05-26T16:19:54.765Z,3.00
2018-05-26T16:22:22.261Z,2.70
2018-05-26T16:24:49.783Z,2.90
2018-05-26T16:27:17.280Z,2.50
2018-05-26T16:29:45.563Z,2.63
2018-05-26T16:32:13.829Z,2.60
2018-05-26T16:34:41.345Z,3.00
2018-05-26T16:37:08.841Z,3.27
2018-05-26T16:39:36.357Z,2.97
2018-05-26T16:42:03.887Z,2.70
2018-05-26T16:44:32.160Z,3.20
2018-05-26T16:47:00.425Z,3.00
2018-05-26T16:49:28.704Z,2.77
2018-05-26T16:51:57.010Z,3.00
2018-05-26T16:54:24.504Z,3.23
2018-05-26T16:56:52.020Z,3.00
2018-05-26T16:59:19.517Z,3.10
2018-05-26T17:01:47.030Z,3.07
2018-05-26T17:04:14.532Z,2.93
2018-05-26T17:06:42.044Z,3.57
2018-05-26T17:09:09.540Z,2.80
2018-05-26T17:11:37.057Z,3.30
2018-05-26T17:14:04.552Z,3.53
2018-05-26T17:16:32.134Z,3.37
2018-05-26T17:18:59.594Z,3.43
2018-05-26T17:21:27.112Z,3.80
2018-05-26T17:23:54.617Z,3.40
2018-05-26T17:26:22.133Z,2.93
2018-05-26T17:28:49.632Z,3.07
2018-05-26T17:31:17.153Z,3.60
2018-05-26T17:33:44.653Z,3.03
2018-05-26T17:36:12.172Z,3.33
2018-05-26T17:38:39.675Z,3.70
2018-05-26T17:41:07.945Z,3.33
2018-05-26T17:43:35.461Z,3.53
2018-05-26T17:46:02.958Z,3.83
2018-05-26T17:48:30.472Z,3.83
2018-05-26T17:50:57.969Z,3.80
2018-05-26T17:53:25.484Z,3.47
2018-05-26T17:55:52.985Z,3.20
2018-05-26T17:58:20.504Z,3.53
2018-05-26T18:00:48.018Z,4.20
2018-05-26T18:03:16.341Z,4.20
2018-05-26T18:05:43.820Z,3.20
2018-05-26T18:08:11.333Z,3.80
2018-05-26T18:10:38.832Z,3.57
2018-05-26T18:13:06.353Z,3.83
2018-05-26T18:15:33.852Z,3.60
2018-05-26T18:18:01.370Z,4.00
2018-05-26T18:20:28.905Z,3.80
2018-05-26T18:22:56.404Z,3.60
2018-05-26T18:25:23.901Z,4.00
2018-05-26T18:27:51.428Z,3.83
2018-05-26T18:30:18.924Z,3.70
2018-05-26T18:32:46.493Z,5.00
2018-05-26T18:35:13.961Z,13.50
2018-05-26T18:37:42.238Z,20.07
2018-05-26T18:40:09.768Z,76.97
2018-05-26T18:42:37.282Z,49.80
2018-05-26T18:45:04.804Z,21.40
2018-05-26T18:47:33.073Z,11.40
2018-05-26T18:50:01.358Z,8.47
2018-05-26T18:52:29.664Z,5.10
2018-05-26T18:54:57.196Z,12.17
2018-05-26T18:57:25.461Z,18.00
2018-05-26T18:59:53.748Z,17.47
2018-05-26T19:02:22.017Z,11.97
2018-05-26T19:04:50.304Z,8.93
2018-05-26T19:07:18.563Z,10.70
2018-05-26T19:09:46.152Z,23.40
2018-05-26T19:12:13.649Z,32.40
2018-05-26T19:14:41.182Z,54.67
2018-05-26T19:17:08.724Z,73.90
2018-05-26T19:19:36.254Z,59.70
2018-05-26T19:22:03.757Z,54.90
2018-05-26T19:24:31.275Z,30.87
2018-05-26T19:26:59.572Z,12.20
2018-05-26T19:29:27.068Z,8.37
2018-05-26T19:31:54.589Z,7.00
2018-05-26T19:34:22.088Z,7.27
2018-05-26T19:36:49.716Z,10.97
2018-05-26T19:39:17.220Z,44.77
2018-05-26T19:41:44.833Z,44.73
2018-05-26T19:44:12.383Z,47.50
2018-05-26T19:46:40.672Z,59.97
2018-05-26T19:49:08.176Z,95.60
2018-05-26T19:51:35.789Z,104.17
2018-05-26T19:54:03.292Z,61.20
2018-05-26T19:56:30.821Z,94.23
2018-05-26T19:58:58.360Z,52.60
2018-05-26T20:01:25.876Z,16.27
2018-05-26T20:03:53.479Z,9.37
2018-05-26T20:06:21.363Z,14.30
2018-05-26T20:08:49.700Z,14.40
2018-05-26T20:11:17.992Z,11.37
2018-05-26T20:13:45.562Z,11.70
2018-05-26T20:16:13.104Z,13.33
2018-05-26T20:18:41.388Z,9.60
2018-05-26T20:21:08.898Z,9.50
2018-05-26T20:23:36.422Z,11.60
2018-05-26T20:26:03.929Z,11.30
2018-05-26T20:28:31.529Z,21.57
2018-05-26T20:30:59.030Z,17.33
2018-05-26T20:33:26.553Z,13.37
2018-05-26T20:35:54.109Z,9.90
2018-05-26T20:38:21.664Z,9.17
2018-05-26T20:40:49.166Z,8.63
2018-05-26T20:43:16.680Z,9.97
2018-05-26T20:45:44.181Z,10.27
2018-05-26T20:48:11.697Z,9.47
2018-05-26T20:50:39.249Z,16.00
2018-05-26T20:53:06.772Z,12.50
2018-05-26T20:55:34.373Z,12.10
2018-05-26T20:58:01.892Z,8.60
2018-05-26T21:00:29.384Z,6.80
2018-05-26T21:02:56.876Z,7.40
2018-05-26T21:05:24.389Z,6.70
2018-05-26T21:07:52.656Z,7.83
2018-05-26T21:10:20.941Z,7.37
2018-05-26T21:12:49.205Z,7.83
2018-05-26T21:15:17.492Z,6.70
2018-05-26T21:17:45.752Z,7.30
2018-05-26T21:20:13.270Z,7.20
2018-05-26T21:22:40.772Z,10.10
2018-05-26T21:25:09.056Z,11.47
2018-05-26T21:27:37.351Z,7.80
2018-05-26T21:30:05.622Z,7.40
2018-05-26T21:32:33.180Z,7.20
2018-05-26T21:35:01.462Z,7.43
2018-05-26T21:37:28.958Z,7.37
2018-05-26T21:39:56.480Z,7.10
2018-05-26T21:42:24.047Z,6.30
2018-05-26T21:44:51.602Z,7.03
2018-05-26T21:47:19.103Z,7.07
2018-05-26T21:49:46.636Z,7.13
2018-05-26T21:52:14.169Z,7.10
2018-05-26T21:54:41.721Z,7.57
2018-05-26T21:57:10.105Z,7.43
2018-05-26T21:59:37.666Z,7.40
2018-05-26T22:02:05.224Z,7.63
2018-05-26T22:04:32.716Z,7.60
2018-05-26T22:07:00.225Z,7.10
2018-05-26T22:09:28.523Z,7.60
2018-05-26T22:11:56.077Z,8.53
2018-05-26T22:14:23.655Z,7.90
2018-05-26T22:16:51.176Z,7.47
2018-05-26T22:19:19.439Z,7.30
2018-05-26T22:21:46.956Z,7.83
2018-05-26T22:24:14.452Z,7.57
2018-05-26T22:26:41.969Z,6.83
2018-05-26T22:29:09.469Z,7.80
2018-05-26T22:31:36.984Z,7.50
2018-05-26T22:34:04.523Z,7.37
2018-05-26T22:36:32.036Z,7.40
2018-05-26T22:38:59.550Z,7.20
2018-05-26T22:41:27.101Z,9.10
2018-05-26T22:43:54.654Z,7.90
2018-05-26T22:46:22.216Z,8.20
2018-05-26T22:48:50.495Z,7.60
2018-05-26T22:51:18.049Z,7.50
2018-05-26T22:53:45.570Z,8.00
2018-05-26T22:56:13.164Z,8.40
2018-05-26T22:58:40.684Z,7.57
2018-05-26T23:01:08.184Z,8.10
2018-05-26T23:03:35.753Z,8.20
2018-05-26T23:06:03.252Z,7.67
2018-05-26T23:08:30.856Z,7.73
2018-05-26T23:10:59.120Z,7.40
2018-05-26T23:13:27.400Z,7.57
2018-05-26T23:15:55.665Z,8.10
2018-05-26T23:18:23.965Z,7.70
2018-05-26T23:20:51.466Z,8.00
2018-05-26T23:23:19.081Z,7.87
2018-05-26T23:25:46.585Z,7.60
2018-05-26T23:28:14.104Z,8.90
2018-05-26T23:30:41.612Z,7.80
2018-05-26T23:33:09.132Z,8.57
2018-05-26T23:35:36.637Z,8.30
2018-05-26T23:38:04.157Z,8.57
2018-05-26T23:40:31.656Z,8.47
2018-05-26T23:42:59.180Z,8.50
2018-05-26T23:45:26.684Z,7.97
2018-05-26T23:47:54.952Z,8.93
2018-05-26T23:50:22.468Z,8.20
2018-05-26T23:52:49.960Z,8.53
2018-05-26T23:55:17.560Z,9.10
2018-05-26T23:57:45.404Z,8.60
